createdAt,value
2019-04-05T15:08:25.509Z,14.00
2019-04-05T15:10:57.369Z,13.90
2019-04-05T15:13:25.182Z,13.90
2019-04-05T15:15:51.940Z,13.80
2019-04-05T15:18:24.117Z,13.80
2019-04-05T15:20:48.811Z,13.80
2019-04-05T15:23:15.285Z,13.80
2019-04-05T15:25:42.062Z,13.70
2019-04-05T15:28:10.462Z,13.70
2019-04-05T15:30:37.483Z,13.70
2019-04-05T15:33:04.175Z,13.60
2019-04-05T15:48:16.144Z,13.50
2019-04-05T15:50:42.789Z,13.40
2019-04-05T15:53:09.363Z,13.40
2019-04-05T15:55:36.545Z,13.30
2019-04-05T15:58:03.919Z,13.30
2019-04-05T16:00:42.642Z,13.20
2019-04-05T16:03:09.225Z,13.20
2019-04-05T16:05:35.922Z,13.10
2019-04-05T16:08:02.612Z,13.10
2019-04-05T16:10:29.173Z,13.10
2019-04-05T16:12:55.657Z,13.00
2019-04-05T16:15:22.395Z,12.90
2019-04-05T16:17:49.193Z,12.90
2019-04-05T16:20:15.662Z,12.90
2019-04-05T16:22:42.434Z,12.80
2019-04-05T16:25:08.897Z,12.70
2019-04-05T16:27:35.584Z,12.70
2019-04-05T16:30:03.857Z,12.60
2019-04-05T16:32:30.655Z,12.60
2019-04-05T16:34:57.214Z,12.50
2019-04-05T16:37:23.942Z,12.50
2019-04-05T16:39:50.749Z,12.40
2019-04-05T16:42:17.204Z,12.40
2019-04-05T16:44:44.454Z,12.30
2019-04-05T16:47:11.061Z,12.20
2019-04-05T16:49:37.842Z,12.20
2019-04-05T16:52:05.191Z,12.10
2019-04-05T16:54:32.346Z,12.00
2019-04-05T16:56:59.323Z,12.00
2019-04-05T16:59:26.137Z,12.00
2019-04-05T17:01:52.833Z,11.90
2019-04-05T17:04:20.306Z,11.80
2019-04-05T17:06:46.976Z,11.70
2019-04-05T17:09:13.734Z,11.70
2019-04-05T17:11:40.419Z,11.60
2019-04-05T17:14:06.998Z,11.60
2019-04-05T17:16:33.726Z,11.60
2019-04-05T17:19:00.434Z,11.50
2019-04-05T17:21:27.123Z,11.50
2019-04-05T17:23:54.378Z,11.40
2019-04-05T17:26:20.948Z,11.30
2019-04-05T17:28:48.564Z,11.20
2019-04-05T17:31:15.017Z,11.20
2019-04-05T17:33:41.621Z,11.10
2019-04-05T17:36:08.210Z,11.10
2019-04-05T17:38:34.852Z,11.00
2019-04-05T17:41:01.432Z,11.00
2019-04-05T17:43:27.914Z,10.90
2019-04-05T17:45:54.383Z,10.80
2019-04-05T17:48:20.979Z,10.80
2019-04-05T17:50:47.582Z,10.80
2019-04-05T17:53:14.155Z,10.70
2019-04-05T17:55:40.645Z,10.70
2019-04-05T17:58:07.233Z,10.60
2019-04-05T18:00:33.712Z,10.50
2019-04-05T18:03:03.978Z,10.50
2019-04-05T18:05:30.461Z,10.40
2019-04-05T18:07:58.939Z,10.40
2019-04-05T18:10:25.536Z,10.40
2019-04-05T18:12:52.130Z,10.30
2019-04-05T18:15:18.613Z,10.30
2019-04-05T18:17:45.206Z,10.20
2019-04-05T18:20:11.816Z,10.20
2019-04-05T18:22:38.285Z,10.20
2019-04-05T18:25:05.463Z,10.10
2019-04-05T18:27:31.936Z,10.00
2019-04-05T18:30:18.780Z,10.10
2019-04-05T18:32:45.481Z,10.10
2019-04-05T18:35:12.056Z,10.00
2019-04-05T18:37:38.534Z,10.00
2019-04-05T18:40:06.035Z,10.00
2019-04-05T18:42:32.686Z,10.00
2019-04-05T18:44:59.408Z,9.90
2019-04-05T18:47:25.945Z,9.90
2019-04-05T18:50:02.454Z,9.80
2019-04-05T18:52:20.922Z,9.80
2019-04-05T18:54:47.618Z,9.70
2019-04-05T18:57:15.762Z,9.70
2019-04-05T18:59:42.386Z,9.60
2019-04-05T19:02:09.085Z,9.50
2019-04-05T19:04:35.649Z,9.50
2019-04-05T19:07:02.377Z,9.50
2019-04-05T19:09:29.062Z,9.50
2019-04-05T19:11:55.658Z,9.40
2019-04-05T19:14:22.328Z,9.40
2019-04-05T19:16:48.818Z,9.30
2019-04-05T19:19:17.725Z,9.20
2019-04-05T19:21:43.786Z,9.20
2019-04-05T19:24:10.525Z,9.20
2019-04-05T19:26:37.205Z,9.10
2019-04-05T19:29:03.794Z,9.10
2019-04-05T19:48:49.961Z,8.90
2019-04-05T19:51:16.774Z,8.80
2019-04-05T19:53:43.791Z,8.80
2019-04-05T19:56:10.495Z,8.70
2019-04-05T19:58:41.483Z,8.70
2019-04-05T20:01:08.791Z,8.70
2019-04-05T20:03:35.365Z,8.60
2019-04-05T20:06:01.945Z,8.60
2019-04-05T20:08:28.627Z,8.50
2019-04-05T20:10:55.214Z,8.50
2019-04-05T20:13:21.802Z,8.40
2019-04-05T20:15:48.395Z,8.40
2019-04-05T20:18:14.961Z,8.40
2019-04-05T20:20:41.566Z,8.30
2019-04-05T20:23:08.147Z,8.30
2019-04-05T20:25:34.714Z,8.20
2019-04-05T20:28:01.461Z,8.20
2019-04-05T20:30:28.033Z,8.20
2019-04-05T20:32:54.614Z,8.10
2019-04-05T20:35:21.201Z,8.10
2019-04-05T20:37:47.895Z,8.00
2019-04-05T20:40:14.468Z,8.00
2019-04-05T20:42:41.075Z,8.00
2019-04-05T20:45:07.641Z,7.90
2019-04-05T20:47:34.153Z,7.90
2019-04-05T20:50:00.781Z,7.80
2019-04-05T20:52:27.241Z,7.70
2019-04-05T20:54:53.830Z,7.70
2019-04-05T20:57:20.407Z,7.60
2019-04-05T20:59:46.994Z,7.50
2019-04-05T21:02:13.620Z,7.40
2019-04-05T21:04:40.314Z,7.30
2019-04-05T21:07:06.997Z,7.30
2019-04-05T21:09:33.496Z,7.20
2019-04-05T21:11:59.954Z,7.20
2019-04-05T21:14:26.538Z,7.10
2019-04-05T21:16:53.225Z,7.10
2019-04-05T21:19:19.703Z,7.10
2019-04-05T21:21:46.164Z,7.00
2019-04-05T21:24:12.739Z,7.00
2019-04-05T21:26:39.288Z,7.00
2019-04-05T21:29:05.971Z,6.90
2019-04-05T21:31:32.508Z,6.90
2019-04-05T21:33:59.224Z,6.80
2019-04-05T21:36:25.894Z,6.80
2019-04-05T21:38:52.444Z,6.70
2019-04-05T21:41:18.912Z,6.70
2019-04-05T21:43:45.468Z,6.70
2019-04-05T21:46:12.016Z,6.60
2019-04-05T21:48:38.673Z,6.60
2019-04-05T21:51:05.125Z,6.60
2019-04-05T21:53:31.577Z,6.60
2019-04-05T21:55:58.141Z,6.60
2019-04-05T21:58:25.927Z,6.60
2019-04-05T22:00:57.885Z,6.50
2019-04-05T22:03:25.230Z,6.40
2019-04-05T22:05:51.677Z,6.40
2019-04-05T22:08:18.225Z,6.40
2019-04-05T22:10:44.790Z,6.40
2019-04-05T22:13:11.460Z,6.40
2019-04-05T22:15:37.916Z,6.30
2019-04-05T22:18:04.476Z,6.30
2019-04-05T22:20:30.925Z,6.30
2019-04-05T22:22:57.496Z,6.20
2019-04-05T22:25:23.936Z,6.20
2019-04-05T22:27:50.608Z,6.10
2019-04-05T22:30:17.268Z,6.10
2019-04-05T22:32:43.824Z,6.00
2019-04-05T22:35:10.477Z,6.00
2019-04-05T22:37:37.026Z,6.00
2019-04-05T22:40:05.108Z,6.10
2019-04-05T22:42:31.671Z,6.10
2019-04-05T22:44:58.344Z,6.10
2019-04-05T22:47:25.094Z,6.10
2019-04-05T22:49:51.640Z,6.00
2019-04-05T22:52:18.192Z,6.00
2019-04-05T22:54:49.928Z,5.90
2019-04-05T22:57:16.601Z,5.80
2019-04-05T22:59:43.266Z,5.80
2019-04-05T23:04:53.727Z,5.80
2019-04-05T23:10:28.411Z,5.70
2019-04-05T23:12:54.903Z,5.70
2019-04-05T23:15:21.363Z,5.60
2019-04-05T23:18:11.841Z,5.60
2019-04-05T23:21:00.400Z,5.60
2019-04-05T23:23:32.275Z,5.60
2019-04-05T23:26:00.509Z,5.50
2019-04-05T23:28:33.047Z,5.50
2019-04-05T23:31:01.668Z,5.60
2019-04-05T23:33:28.892Z,5.60
2019-04-05T23:35:55.476Z,5.60
2019-04-05T23:38:22.139Z,5.50
2019-04-05T23:40:51.732Z,5.50
2019-04-05T23:43:18.138Z,5.50
2019-04-05T23:45:48.220Z,5.50
2019-04-05T23:48:31.621Z,5.40
2019-04-05T23:50:45.935Z,5.40
2019-04-05T23:53:12.891Z,5.40
2019-04-05T23:55:39.605Z,5.40
2019-04-05T23:58:06.285Z,5.40
